Aérodrome :
LOGIN :

S'inscrire | Disclaimer

   EN    FR    IT 

 










Légende :    VFR   VFR Marginal   IFR   IFR Intensif   IFR Très Intensif
Visi : 
Plafond : 
>= 8 km
>= 3000ft
5 à 8 km
1000 à 3000 ft
1500m à 5 km
500 à 1000 ft
800 à 1500m
200 à 500 ft
< 800m
< 200 ft
Symboles :   Orages  Brouillard  Fortes neiges  Fortes précipitations  Vent > 20 kt
SIGMETs :   Divers  Orages  Givrage  Turbulence  Onde Orograph.  Cendres Volcan.







- Altitude de l'aérodrome : 121 ft
- Code IATA : HUY
- Voir les cartes d'approche


EGNJ - Humberside

DERNIER METAR :
  • 210350Z AUTO 27005KT 9999 NCD 14/13 Q1013

METARs EXPIRÉS :
  • 210320Z AUTO 24003KT 9999 NCD 14/12 Q1013
  • 210250Z AUTO 22004KT 9999 NCD 14/12 Q1013
  • 210220Z AUTO 21004KT 9999 NCD 13/12 Q1013
  • 210150Z AUTO 20002KT 9999 NCD 14/11 Q1013
  • 210120Z AUTO 21002KT 9999 NCD 15/12 Q1013

TAF TAF EGNJ
Valide du 21 à 03h jusqu'au 21 à 12h UTC


210208Z 2103/2112 27005KT 9999 FEW045
PROB30
TEMPO 2103/2108 BKN012
ATIS : +44 1652 682 020
Pas de NOTAMs connus pour ce terrain.



MET'MAP, la Météo Aéronautique d'un coup d'oeil ! - Copyright ORBIFLY Décembre 2007 - Disclaimer

ORBIFLY MET'MAP TEAM :

Programmation & Développement : Alexandra Zaïnal
Conception & Développement : Baudouin d'Aumeries
Co-Programmation & Développement : Marc-Olivier Méhu
Soutien technique & logistique : Manuel Goepfert

Contact : metmap@orbifly.com




SOURCES & CREDITS :

   NOAA